Time;durP1;ratioP1;P1;durP2;ratioP2;P2;SDS_P1;SDS_P2;PMS_P1;PMS_P2;Temp;Humidity;BMP_temperature;BMP_pressure;BME280_temperature;BME280_humidity;BME280_pressure;Samples;Min_cycle;Max_cycle;Signal;HPM_P1;HPM_P2
2023/05/17 00:00:09;;;;;;;12.80;3.03;;;;;;;7.15;67.67;101617.69;5067777;28;20041;-59
2023/05/17 00:02:36;;;;;;;12.27;2.92;;;;;;;7.07;68.07;101620.44;5050834;28;20463;-58
2023/05/17 00:05:03;;;;;;;6.95;2.60;;;;;;;7.14;68.26;101623.84;5052319;28;20102;-59
2023/05/17 00:07:30;;;;;;;7.18;2.65;;;;;;;7.13;68.75;101615.09;5073271;28;20439;-58
2023/05/17 00:09:56;;;;;;;13.70;3.90;;;;;;;7.04;68.56;101609.97;5055374;28;20122;-58
2023/05/17 00:12:25;;;;;;;8.68;2.30;;;;;;;6.97;68.85;101613.63;5073041;28;20405;-58
2023/05/17 00:14:52;;;;;;;15.15;3.25;;;;;;;7.01;69.54;101615.28;5066533;28;20099;-59
2023/05/17 00:17:19;;;;;;;7.03;2.85;;;;;;;6.98;69.53;101616.22;5068994;28;20384;-58
2023/05/17 00:19:45;;;;;;;12.18;3.70;;;;;;;7.04;69.84;101620.50;5083520;28;20539;-59
2023/05/17 00:22:12;;;;;;;18.00;3.50;;;;;;;6.95;69.80;101611.03;5053720;28;20048;-60
2023/05/17 00:24:39;;;;;;;10.15;3.03;;;;;;;6.96;70.54;101611.88;5072723;28;20052;-58
2023/05/17 00:27:06;;;;;;;12.70;3.05;;;;;;;6.89;70.61;101611.09;5064980;28;20045;-60
2023/05/17 00:29:33;;;;;;;16.90;4.75;;;;;;;6.85;70.55;101608.56;5060938;28;20079;-57
2023/05/17 00:31:59;;;;;;;8.95;2.70;;;;;;;6.89;70.17;101615.50;5071166;28;20049;-59
2023/05/17 00:34:26;;;;;;;16.25;4.45;;;;;;;6.95;70.32;101615.41;5071339;28;20055;-58
2023/05/17 00:36:53;;;;;;;15.93;4.40;;;;;;;6.92;70.53;101615.47;5072878;28;20044;-59
2023/05/17 00:39:20;;;;;;;13.00;3.63;;;;;;;6.89;70.46;101620.75;5067817;28;20053;-60
2023/05/17 00:41:47;;;;;;;16.25;3.38;;;;;;;6.90;70.43;101618.13;5073030;28;20068;-58
2023/05/17 00:44:14;;;;;;;14.30;2.85;;;;;;;6.89;70.80;101620.75;5072275;28;20136;-58
2023/05/17 00:46:40;;;;;;;9.93;3.55;;;;;;;6.91;71.03;101616.34;5065105;28;20045;-59
2023/05/17 00:49:07;;;;;;;17.30;3.75;;;;;;;6.87;71.18;101622.56;5062006;28;20131;-57
2023/05/17 00:51:35;;;;;;;16.40;3.95;;;;;;;6.89;71.24;101624.25;5071165;28;20136;-58
2023/05/17 00:54:02;;;;;;;10.60;3.05;;;;;;;6.86;71.67;101616.41;5070472;28;20049;-58
2023/05/17 00:56:30;;;;;;;19.08;4.40;;;;;;;6.87;71.18;101622.56;5066478;28;20052;-58
2023/05/17 00:58:57;;;;;;;14.00;3.08;;;;;;;6.89;71.92;101620.75;5066220;28;20155;-57
2023/05/17 01:01:25;;;;;;;22.55;4.03;;;;;;;6.90;71.80;101617.22;5050916;28;20135;-59
2023/05/17 01:03:52;;;;;;;13.38;4.50;;;;;;;6.88;71.98;101624.28;5065668;28;20048;-57
2023/05/17 01:06:19;;;;;;;12.95;4.05;;;;;;;6.78;72.02;101616.56;5072440;28;20094;-57
2023/05/17 01:08:46;;;;;;;18.90;3.25;;;;;;;6.83;72.47;101615.59;5073562;28;20102;-59
2023/05/17 01:11:30;;;;;;;9.65;3.90;;;;;;;6.84;72.88;101618.22;5058448;28;20127;-57
2023/05/17 01:14:08;;;;;;;12.35;3.90;;;;;;;6.80;72.48;101616.53;5075020;28;20084;-57
2023/05/17 01:17:03;;;;;;;20.20;4.38;;;;;;;6.72;73.00;101619.28;5075332;28;20524;-59
2023/05/17 01:19:57;;;;;;;11.40;3.95;;;;;;;6.68;72.95;101628.09;5042259;28;20123;-57
2023/05/17 01:22:39;;;;;;;14.07;3.22;;;;;;;6.67;74.03;101626.38;5076133;28;20044;-58
2023/05/17 01:25:33;;;;;;;11.35;3.08;;;;;;;6.67;73.66;101636.88;5075542;28;20110;-57
2023/05/17 01:28:02;;;;;;;13.55;3.80;;;;;;;6.70;74.14;101623.69;5079749;28;20041;-60
2023/05/17 01:30:31;;;;;;;14.68;4.03;;;;;;;6.67;73.64;101626.38;5082287;28;20135;-57
2023/05/17 01:32:58;;;;;;;14.10;3.42;;;;;;;6.69;74.21;101626.34;5075831;28;20056;-59
2023/05/17 01:35:25;;;;;;;13.20;3.90;;;;;;;6.66;73.96;101629.88;5068909;28;20077;-59
2023/05/17 01:37:55;;;;;;;14.80;4.47;;;;;;;6.63;74.14;101631.69;5064672;28;20362;-58
2023/05/17 01:40:23;;;;;;;16.42;4.65;;;;;;;6.64;73.90;101631.66;5068306;28;20048;-58
2023/05/17 01:42:55;;;;;;;17.02;4.50;;;;;;;6.62;74.72;101633.47;5072769;28;20052;-58
2023/05/17 01:45:46;;;;;;;13.90;3.95;;;;;;;6.60;74.58;101636.09;5075040;28;20123;-58
2023/05/17 01:48:33;;;;;;;18.85;4.00;;;;;;;6.57;75.12;101645.75;5075458;28;20044;-59
2023/05/17 01:51:01;;;;;;;22.40;3.58;;;;;;;6.53;75.50;101639.69;5075849;28;20082;-60
2023/05/17 01:53:34;;;;;;;10.88;4.47;;;;;;;6.52;75.05;101637.09;5075550;28;20135;-58
2023/05/17 01:56:06;;;;;;;12.35;3.97;;;;;;;6.51;75.62;101645.88;5057430;28;20135;-58
2023/05/17 01:58:43;;;;;;;13.63;4.40;;;;;;;6.47;75.59;101633.66;5074242;28;20040;-58
2023/05/17 02:01:12;;;;;;;19.20;4.15;;;;;;;6.46;75.72;101652.94;5069258;28;20041;-58
2023/05/17 02:03:38;;;;;;;17.55;3.97;;;;;;;6.47;75.66;101657.31;5074815;28;20080;-58
2023/05/17 02:06:05;;;;;;;14.07;4.72;;;;;;;6.43;75.69;101654.72;5073169;28;20076;-58
2023/05/17 02:08:31;;;;;;;23.90;4.57;;;;;;;6.37;76.29;101649.53;5067877;28;20088;-59
2023/05/17 02:10:58;;;;;;;13.25;3.92;;;;;;;6.35;76.14;101650.47;5075369;28;20053;-58
2023/05/17 02:13:24;;;;;;;16.58;5.25;;;;;;;6.32;76.19;101646.13;5068419;28;20088;-58
2023/05/17 02:15:51;;;;;;;16.52;4.38;;;;;;;6.30;76.41;101653.16;5075392;28;20052;-58
2023/05/17 02:18:20;;;;;;;17.45;4.72;;;;;;;6.27;76.71;101653.19;5069006;28;20068;-58
2023/05/17 02:20:47;;;;;;;14.00;4.05;;;;;;;6.29;76.28;101651.41;5076347;28;20058;-58
2023/05/17 02:23:13;;;;;;;22.05;5.45;;;;;;;6.32;76.70;101655.75;5056338;28;20127;-58
2023/05/17 02:25:40;;;;;;;13.80;5.90;;;;;;;6.35;76.18;101639.97;5075503;28;20076;-58
2023/05/17 02:28:06;;;;;;;20.00;5.75;;;;;;;6.46;75.78;101634.53;5074808;28;20055;-58
2023/05/17 02:30:33;;;;;;;12.25;4.78;;;;;;;6.43;75.66;101635.47;5068227;28;20060;-58
2023/05/17 02:32:59;;;;;;;19.95;4.22;;;;;;;6.50;76.01;101629.22;5063533;28;20374;-58
2023/05/17 02:35:26;;;;;;;10.20;4.13;;;;;;;6.55;75.27;101634.41;5068937;28;20128;-58
2023/05/17 02:37:53;;;;;;;14.07;4.30;;;;;;;6.58;75.59;101629.13;5075276;28;20052;-58
2023/05/17 02:40:19;;;;;;;13.50;4.10;;;;;;;6.60;75.23;101635.22;5070536;28;20052;-59
2023/05/17 02:42:46;;;;;;;10.02;3.85;;;;;;;6.63;75.58;101635.19;5072461;28;20457;-58
2023/05/17 02:45:12;;;;;;;23.15;4.55;;;;;;;6.59;75.43;101638.75;5074183;28;20131;-59
2023/05/17 02:47:39;;;;;;;14.20;4.45;;;;;;;6.63;75.26;101637.81;5070125;28;20392;-58
2023/05/17 02:50:06;;;;;;;14.07;3.88;;;;;;;6.64;75.61;101642.19;5070618;28;20052;-59
2023/05/17 02:52:33;;;;;;;20.38;4.47;;;;;;;6.68;74.75;101638.59;5073966;28;20544;-58
2023/05/17 02:54:59;;;;;;;14.02;4.18;;;;;;;6.67;75.18;101636.88;5075413;28;20570;-58
2023/05/17 02:57:26;;;;;;;19.27;4.40;;;;;;;6.71;75.30;101638.56;5076402;28;20127;-58
2023/05/17 02:59:52;;;;;;;21.10;3.80;;;;;;;6.73;75.04;101642.00;5072395;28;20071;-58
2023/05/17 03:02:19;;;;;;;18.33;4.32;;;;;;;6.78;74.99;101634.97;5075333;28;20056;-58
2023/05/17 03:04:45;;;;;;;20.98;4.20;;;;;;;6.82;75.35;101650.66;5073762;28;20391;-58
2023/05/17 03:07:12;;;;;;;12.02;4.60;;;;;;;6.83;74.93;101647.13;5073835;28;20128;-58
2023/05/17 03:09:40;;;;;;;29.30;4.65;;;;;;;6.86;74.90;101650.56;5070141;28;20140;-57
2023/05/17 03:12:07;;;;;;;10.27;3.83;;;;;;;6.90;75.31;101648.75;5057444;28;20049;-58
2023/05/17 03:14:34;;;;;;;10.05;4.43;;;;;;;6.89;75.48;101652.31;5065579;28;20053;-57
2023/05/17 03:17:01;;;;;;;18.88;5.38;;;;;;;6.90;75.39;101659.28;5073807;28;20052;-58
2023/05/17 03:19:27;;;;;;;15.13;4.47;;;;;;;6.90;74.75;101654.03;5073022;28;20052;-58
2023/05/17 03:21:54;;;;;;;17.90;4.57;;;;;;;6.89;75.42;101652.31;5073017;28;20048;-58
2023/05/17 03:24:20;;;;;;;16.60;3.97;;;;;;;6.86;75.39;101657.59;5072368;28;20049;-58
2023/05/17 03:26:47;;;;;;;26.95;4.68;;;;;;;6.87;76.04;101661.97;5072416;28;20052;-59
2023/05/17 03:29:13;;;;;;;18.77;5.25;;;;;;;6.87;75.81;101672.50;5072476;28;20056;-58
2023/05/17 03:31:40;;;;;;;21.70;4.00;;;;;;;6.79;75.38;101670.84;5073362;28;20450;-58
2023/05/17 03:34:07;;;;;;;14.68;4.95;;;;;;;6.78;75.53;101677.00;5072874;28;20076;-59
2023/05/17 03:36:34;;;;;;;12.05;3.97;;;;;;;6.80;75.18;101662.06;5073356;28;20071;-57
2023/05/17 03:39:00;;;;;;;17.25;4.55;;;;;;;6.88;75.24;101674.22;5075392;28;20583;-59
2023/05/17 03:41:27;;;;;;;17.55;5.15;;;;;;;6.90;75.19;101681.19;5082439;28;20120;-59
2023/05/17 03:43:53;;;;;;;20.77;4.60;;;;;;;6.88;75.43;101682.09;5073978;28;20689;-59
2023/05/17 03:46:20;;;;;;;14.90;4.15;;;;;;;6.90;75.20;101675.94;5072795;28;20048;-59
2023/05/17 03:48:46;;;;;;;14.38;5.55;;;;;;;6.79;75.76;101683.97;5070528;28;20036;-58
2023/05/17 03:51:13;;;;;;;18.98;4.65;;;;;;;6.71;75.93;101675.34;5072914;28;20059;-58
2023/05/17 03:53:42;;;;;;;22.10;4.60;;;;;;;6.66;76.13;101692.94;5081495;28;20135;-58
2023/05/17 03:56:09;;;;;;;16.13;4.75;;;;;;;6.69;76.00;101692.91;5074994;28;20466;-58
2023/05/17 03:58:36;;;;;;;14.27;5.50;;;;;;;6.57;76.34;101690.44;5073106;28;20127;-58
2023/05/17 04:01:03;;;;;;;15.75;4.35;;;;;;;6.51;76.41;101698.41;5071932;28;20518;-58
2023/05/17 04:03:30;;;;;;;13.30;4.28;;;;;;;6.46;77.09;101700.22;5072843;28;20053;-58
2023/05/17 04:06:05;;;;;;;19.30;6.30;;;;;;;6.38;77.23;101708.22;5071734;28;20044;-59
2023/05/17 04:08:33;;;;;;;20.92;5.22;;;;;;;6.37;77.27;101717.81;5055140;28;20703;-57
2023/05/17 04:11:08;;;;;;;18.70;6.03;;;;;;;6.35;77.38;101709.09;5067834;28;20586;-57
2023/05/17 04:13:38;;;;;;;12.02;5.15;;;;;;;6.35;78.13;101714.34;5071136;28;20125;-57
2023/05/17 04:16:06;;;;;;;16.02;5.20;;;;;;;6.39;77.72;101716.06;5070624;28;20376;-59
2023/05/17 04:18:37;;;;;;;23.48;6.07;;;;;;;6.47;77.68;101718.56;5072670;28;20040;-57
2023/05/17 04:21:04;;;;;;;18.38;5.82;;;;;;;6.46;77.46;101718.59;5088952;28;20460;-57
2023/05/17 04:23:33;;;;;;;14.50;5.13;;;;;;;6.49;77.89;101723.81;5073126;28;20084;-58
2023/05/17 04:26:00;;;;;;;19.80;4.95;;;;;;;6.48;77.61;101719.47;5067018;28;20422;-60
2023/05/17 04:28:27;;;;;;;21.52;5.38;;;;;;;6.50;77.71;101723.78;5072218;28;20123;-58
2023/05/17 04:30:55;;;;;;;18.58;5.50;;;;;;;6.38;77.72;101730.06;5053032;28;20131;-58
2023/05/17 04:33:21;;;;;;;14.93;5.43;;;;;;;6.43;78.25;101720.38;5072756;28;20076;-58
2023/05/17 04:35:49;;;;;;;26.92;6.70;;;;;;;6.50;77.94;101726.41;5071955;28;20052;-58
2023/05/17 04:38:16;;;;;;;18.15;5.18;;;;;;;6.55;78.20;101734.25;5072747;28;20128;-58
2023/05/17 04:40:42;;;;;;;21.20;4.80;;;;;;;6.54;77.69;101732.50;5073049;28;20055;-58
2023/05/17 04:43:09;;;;;;;15.30;5.60;;;;;;;6.56;78.43;101738.63;5069602;28;20131;-58
2023/05/17 04:45:36;;;;;;;16.98;6.00;;;;;;;6.60;78.45;101740.31;5069951;28;20052;-58
2023/05/17 04:48:03;;;;;;;17.45;6.18;;;;;;;6.64;77.74;101742.00;5071911;28;20102;-59
2023/05/17 04:50:30;;;;;;;15.40;5.35;;;;;;;6.69;77.73;101740.19;5072300;28;20052;-59
2023/05/17 04:52:56;;;;;;;14.90;5.10;;;;;;;6.79;77.76;101747.03;5068972;28;20091;-58
2023/05/17 04:55:23;;;;;;;14.77;4.90;;;;;;;6.88;77.25;101753.06;5072332;28;20080;-59
2023/05/17 04:57:50;;;;;;;19.98;4.93;;;;;;;6.89;77.15;101765.31;5071926;28;20136;-59
2023/05/17 05:00:17;;;;;;;23.38;6.10;;;;;;;6.85;76.96;101771.50;5072126;28;20049;-58
2023/05/17 05:02:44;;;;;;;19.88;6.85;;;;;;;6.88;77.22;101771.47;5073344;28;20049;-58
2023/05/17 05:05:10;;;;;;;20.95;6.18;;;;;;;6.98;77.32;101779.19;5072406;28;20354;-58
2023/05/17 05:07:38;;;;;;;29.83;12.18;;;;;;;7.01;76.71;101782.66;5054948;28;20415;-58
2023/05/17 05:10:06;;;;;;;22.20;8.25;;;;;;;7.07;76.17;101787.84;5072694;28;20048;-58
2023/05/17 05:12:32;;;;;;;19.80;5.38;;;;;;;7.11;76.21;101793.03;5068870;28;20053;-58
2023/05/17 05:14:59;;;;;;;21.17;6.40;;;;;;;7.17;76.45;101795.56;5072108;28;20056;-60
2023/05/17 05:17:27;;;;;;;23.02;6.60;;;;;;;7.24;76.17;101803.38;5072241;28;20094;-58
2023/05/17 05:19:54;;;;;;;18.85;5.38;;;;;;;7.32;75.46;101801.47;5069276;28;20049;-58
2023/05/17 05:22:21;;;;;;;17.70;5.45;;;;;;;7.40;75.46;101811.91;5072531;28;20136;-60
2023/05/17 05:24:47;;;;;;;16.90;5.47;;;;;;;7.42;74.72;101800.47;5072307;28;20054;-58
2023/05/17 05:27:14;;;;;;;16.40;5.88;;;;;;;7.51;74.32;101808.19;5071678;28;20147;-59
2023/05/17 05:29:41;;;;;;;21.90;6.50;;;;;;;7.58;73.81;101816.84;5069989;28;20091;-58
2023/05/17 05:32:08;;;;;;;28.20;5.18;;;;;;;7.65;73.15;101815.00;5072665;28;20057;-59
2023/05/17 05:34:34;;;;;;;23.00;5.70;;;;;;;7.73;71.58;101815.72;5071634;28;20414;-59
2023/05/17 05:37:01;;;;;;;16.90;4.63;;;;;;;7.82;70.30;101814.72;5072456;28;20044;-58
2023/05/17 05:39:27;;;;;;;17.33;4.57;;;;;;;7.91;70.76;101825.06;5072146;28;20051;-58
2023/05/17 05:41:54;;;;;;;12.13;3.80;;;;;;;7.89;69.73;101827.75;5073302;28;20441;-58
2023/05/17 05:44:21;;;;;;;20.23;5.20;;;;;;;7.96;69.21;101822.38;5070529;28;20078;-58
2023/05/17 05:46:51;;;;;;;19.65;4.45;;;;;;;8.06;69.10;101823.97;5074567;28;20047;-58
2023/05/17 05:49:18;;;;;;;25.42;4.80;;;;;;;8.36;68.42;101827.78;5075466;28;20036;-58
2023/05/17 05:51:44;;;;;;;19.45;4.10;;;;;;;8.47;67.65;101840.78;5074587;28;20461;-58
2023/05/17 05:54:12;;;;;;;20.48;5.85;;;;;;;8.52;68.53;101848.59;5073347;28;20123;-58
2023/05/17 05:56:39;;;;;;;16.40;4.47;;;;;;;8.63;68.40;101852.75;5075210;28;20473;-59
2023/05/17 05:59:05;;;;;;;15.48;3.92;;;;;;;8.67;68.53;101847.44;5075303;28;20041;-59
2023/05/17 06:01:34;;;;;;;15.93;4.30;;;;;;;8.61;68.73;101853.69;5075192;28;20052;-58
2023/05/17 06:04:01;;;;;;;12.98;3.92;;;;;;;8.92;68.18;101853.91;5075598;28;20086;-58
2023/05/17 06:06:27;;;;;;;15.25;4.10;;;;;;;9.22;67.06;101851.53;5075150;28;20048;-59
2023/05/17 06:08:54;;;;;;;18.10;4.68;;;;;;;9.20;65.55;101842.75;5058039;28;20079;-58
2023/05/17 06:11:25;;;;;;;18.00;4.15;;;;;;;9.35;64.02;101847.72;5073537;28;20059;-58
2023/05/17 06:13:51;;;;;;;20.17;4.95;;;;;;;9.16;63.99;101846.38;5064016;28;20040;-59
2023/05/17 06:16:18;;;;;;;17.20;3.15;;;;;;;8.99;61.08;101852.00;5075518;28;20101;-58
2023/05/17 06:18:45;;;;;;;14.55;4.45;;;;;;;9.05;61.00;101858.94;5071389;28;20449;-58
2023/05/17 06:21:17;;;;;;;20.30;3.90;;;;;;;9.04;61.38;101868.63;5066341;28;20646;-59
2023/05/17 06:23:43;;;;;;;15.93;3.70;;;;;;;9.18;61.23;101876.22;5064297;28;20088;-59
2023/05/17 06:26:10;;;;;;;19.05;4.32;;;;;;;9.30;61.09;101870.69;5060577;28;20132;-58
2023/05/17 06:28:37;;;;;;;18.00;3.55;;;;;;;9.46;60.01;101880.88;5074283;28;20445;-58
2023/05/17 06:31:03;;;;;;;21.98;3.90;;;;;;;9.37;60.08;101874.91;5081950;28;20133;-58
2023/05/17 06:33:30;;;;;;;19.20;3.72;;;;;;;9.43;60.15;101875.69;5080471;28;20199;-58
2023/05/17 06:35:56;;;;;;;14.35;3.90;;;;;;;9.47;60.13;101872.06;5108946;28;20047;-58
2023/05/17 06:38:24;;;;;;;28.58;4.97;;;;;;;9.45;61.01;101879.13;5095887;28;20084;-58
2023/05/17 06:40:52;;;;;;;19.90;3.40;;;;;;;9.48;60.29;101868.50;5057848;28;20453;-58
2023/05/17 06:43:20;;;;;;;21.02;4.32;;;;;;;9.57;60.00;101863.03;5073548;28;20056;-58
2023/05/17 06:45:46;;;;;;;11.32;2.97;;;;;;;9.38;60.04;101857.31;5074672;28;20114;-58
2023/05/17 06:48:14;;;;;;;18.80;3.53;;;;;;;9.73;59.71;101880.25;5068946;28;20051;-58
2023/05/17 06:50:41;;;;;;;14.10;3.40;;;;;;;9.61;61.00;101877.91;5074255;28;20084;-58
2023/05/17 06:53:07;;;;;;;16.02;3.42;;;;;;;9.67;62.10;101880.38;5070783;28;20055;-58
2023/05/17 06:55:34;;;;;;;14.88;3.97;;;;;;;9.34;62.09;101890.81;5074477;28;20048;-58
2023/05/17 06:58:00;;;;;;;17.67;4.25;;;;;;;9.00;63.74;101898.59;5071320;28;20117;-58
2023/05/17 07:00:27;;;;;;;12.73;3.58;;;;;;;9.04;63.37;101891.47;5068796;28;20040;-58
2023/05/17 07:02:54;;;;;;;14.68;3.42;;;;;;;9.09;61.75;101902.78;5074706;28;20059;-59
2023/05/17 07:05:22;;;;;;;13.05;3.30;;;;;;;9.15;60.16;101889.47;5074467;28;20052;-59
2023/05/17 07:07:49;;;;;;;13.15;3.28;;;;;;;9.34;59.90;101888.19;5072405;28;20126;-58
2023/05/17 07:10:16;;;;;;;18.38;3.33;;;;;;;9.65;58.90;101881.34;5072383;28;20464;-58
2023/05/17 07:12:42;;;;;;;11.48;2.85;;;;;;;9.97;56.37;101888.47;5064521;28;20136;-59
2023/05/17 07:15:09;;;;;;;13.20;2.95;;;;;;;10.02;53.71;101886.59;5070144;28;20049;-58
2023/05/17 07:17:36;;;;;;;11.75;2.20;;;;;;;9.77;53.88;101880.16;5071124;28;20409;-60
2023/05/17 07:20:05;;;;;;;9.75;2.58;;;;;;;10.13;53.49;101888.06;5057167;28;20071;-58
2023/05/17 07:22:32;;;;;;;10.27;2.85;;;;;;;10.55;52.40;101885.25;5074538;28;20044;-58
2023/05/17 07:24:59;;;;;;;8.80;3.20;;;;;;;10.91;53.42;101882.47;5066522;28;20052;-58
2023/05/17 07:27:25;;;;;;;21.13;3.75;;;;;;;10.63;53.13;101888.53;5066774;28;20123;-58
2023/05/17 07:29:53;;;;;;;12.77;3.03;;;;;;;10.43;54.13;101892.59;5058048;28;20321;-59
2023/05/17 07:32:20;;;;;;;19.25;3.60;;;;;;;9.78;56.52;101903.03;5074081;28;20131;-60
2023/05/17 07:34:47;;;;;;;18.13;2.85;;;;;;;9.87;56.16;101903.69;5073852;28;20048;-60
2023/05/17 07:37:14;;;;;;;17.15;2.50;;;;;;;10.25;55.36;101903.63;5069791;28;20049;-60
2023/05/17 07:39:40;;;;;;;15.68;2.97;;;;;;;10.14;55.61;101910.97;5074276;28;20125;-58
2023/05/17 07:42:07;;;;;;;15.57;3.85;;;;;;;10.01;54.92;101916.53;5072509;28;20052;-58
2023/05/17 07:44:34;;;;;;;11.95;2.40;;;;;;;9.71;53.53;101915.53;5055489;28;20743;-59
2023/05/17 07:47:00;;;;;;;14.30;3.38;;;;;;;9.53;54.19;101916.78;5072643;28;20048;-59
2023/05/17 07:49:27;;;;;;;16.40;2.40;;;;;;;9.39;52.71;101927.66;5069872;28;20427;-58
2023/05/17 07:51:54;;;;;;;12.43;3.47;;;;;;;9.47;51.72;101938.06;5054463;28;20063;-58
2023/05/17 07:54:24;;;;;;;12.73;2.80;;;;;;;9.56;52.15;101945.75;5067475;28;20356;-58
2023/05/17 07:56:52;;;;;;;11.93;2.50;;;;;;;9.92;52.23;101949.34;5071936;28;20059;-58
2023/05/17 07:59:18;;;;;;;13.82;2.45;;;;;;;9.99;50.59;101954.44;5073301;28;20428;-59
2023/05/17 08:01:45;;;;;;;11.18;2.97;;;;;;;10.14;49.95;101945.31;5067282;28;20049;-58
2023/05/17 08:04:15;;;;;;;8.65;2.00;;;;;;;10.28;50.13;101946.69;5067930;28;20048;-58
2023/05/17 08:06:44;;;;;;;11.95;2.83;;;;;;;10.34;50.09;101955.41;5041229;28;20414;-58
2023/05/17 08:09:11;;;;;;;9.73;1.67;;;;;;;10.42;50.15;101949.00;5072464;28;20461;-59
2023/05/17 08:11:44;;;;;;;11.07;2.33;;;;;;;10.24;50.09;101960.00;5071515;28;20054;-59
2023/05/17 08:14:12;;;;;;;9.85;1.92;;;;;;;10.37;50.00;101950.91;5067534;28;20048;-60
2023/05/17 08:16:40;;;;;;;11.63;2.45;;;;;;;10.60;49.53;101952.06;5073177;28;20139;-59
2023/05/17 08:19:11;;;;;;;16.23;2.85;;;;;;;10.60;50.06;101958.22;5073256;28;20359;-60
2023/05/17 08:21:39;;;;;;;;;;;;;;;10.66;49.73;101951.91;5074127;28;20052;-57
2023/05/17 08:24:05;;;;;;;17.23;2.60;;;;;;;10.80;50.02;101949.75;5072793;28;19920;-60
2023/05/17 08:26:32;;;;;;;14.15;3.55;;;;;;;10.77;50.18;101965.72;5072985;28;20108;-59
2023/05/17 08:29:01;;;;;;;11.60;3.03;;;;;;;11.03;49.64;101950.88;5073166;28;20053;-61
2023/05/17 08:31:28;;;;;;;10.75;2.67;;;;;;;11.62;48.23;101963.25;5059339;28;20053;-59
2023/05/17 08:33:54;;;;;;;11.98;2.50;;;;;;;11.31;49.04;101965.97;5045465;28;20139;-58
2023/05/17 08:36:21;;;;;;;8.38;2.22;;;;;;;11.06;50.04;101961.38;5069364;28;20048;-58
2023/05/17 08:38:48;;;;;;;19.58;2.63;;;;;;;10.79;51.17;101969.19;5067545;28;20135;-59
2023/05/17 08:41:14;;;;;;;17.73;2.75;;;;;;;10.76;49.97;101968.41;5070691;28;20044;-58
2023/05/17 08:43:42;;;;;;;11.45;1.95;;;;;;;10.72;49.30;101964.94;5071948;28;20105;-59
2023/05/17 08:46:10;;;;;;;15.88;1.95;;;;;;;10.71;49.39;101976.47;5073647;28;20052;-57
2023/05/17 08:48:40;;;;;;;16.15;3.03;;;;;;;10.84;49.71;101982.28;5072251;28;20358;-59
2023/05/17 08:51:10;;;;;;;18.50;4.43;;;;;;;10.69;50.12;101973.00;5063223;28;20125;-59
2023/05/17 08:53:37;;;;;;;17.30;3.03;;;;;;;11.04;48.79;101978.22;5077386;28;20060;-60
2023/05/17 08:56:05;;;;;;;14.00;2.97;;;;;;;11.14;48.19;101971.75;5077147;28;20052;-58
2023/05/17 08:58:36;;;;;;;13.93;2.13;;;;;;;10.94;46.60;101974.97;5054714;28;20059;-59
2023/05/17 09:01:22;;;;;;;16.17;2.70;;;;;;;11.08;47.01;101979.88;5072219;28;20052;-59
2023/05/17 09:03:52;;;;;;;24.80;4.75;;;;;;;11.24;46.10;101953.84;5084135;28;20471;-59
2023/05/17 09:06:21;;;;;;;14.23;3.75;;;;;;;11.20;44.59;101964.50;5072148;28;20108;-57
2023/05/17 09:08:51;;;;;;;9.23;1.83;;;;;;;11.04;45.73;101975.59;5076844;28;20122;-57
2023/05/17 09:11:28;;;;;;;11.80;2.83;;;;;;;11.27;45.86;101964.34;5056961;28;20048;-58
2023/05/17 09:14:04;;;;;;;15.98;2.15;;;;;;;11.35;44.80;101970.28;5072699;28;20056;-59
2023/05/17 09:16:32;;;;;;;9.07;2.20;;;;;;;11.45;44.55;101963.78;5083140;28;20052;-59
2023/05/17 09:18:59;;;;;;;13.02;2.67;;;;;;;11.80;44.75;101969.75;5094125;28;20135;-60
2023/05/17 09:21:27;;;;;;;7.00;1.75;;;;;;;11.69;42.31;101966.63;5060513;28;20056;-58
2023/05/17 09:23:54;;;;;;;7.03;2.20;;;;;;;11.80;43.79;101969.75;5083952;28;20625;-59
2023/05/17 09:26:44;;;;;;;10.80;2.40;;;;;;;11.51;44.17;101979.50;5076094;28;20053;-59
2023/05/17 09:29:12;;;;;;;15.98;2.47;;;;;;;11.49;43.23;101972.50;5077027;28;20052;-59
2023/05/17 09:31:40;;;;;;;14.75;3.65;;;;;;;11.68;43.38;101970.16;5077003;28;20049;-59
2023/05/17 09:34:07;;;;;;;8.10;2.38;;;;;;;11.84;44.35;101965.25;5075567;28;20044;-59
2023/05/17 09:36:36;;;;;;;10.50;3.30;;;;;;;11.68;44.90;101964.88;5058927;28;20411;-59
2023/05/17 09:39:04;;;;;;;8.45;2.15;;;;;;;12.18;43.99;101962.41;5074882;28;20538;-59
2023/05/17 09:41:39;;;;;;;6.15;2.20;;;;;;;12.60;43.08;101971.59;5057614;28;20110;-59
2023/05/17 09:44:09;;;;;;;11.55;2.10;;;;;;;12.39;42.95;101974.09;5067944;28;20054;-60
2023/05/17 09:46:47;;;;;;;20.23;3.33;;;;;;;12.52;41.84;101969.25;5077895;28;20139;-59
2023/05/17 09:49:15;;;;;;;12.45;2.42;;;;;;;12.48;42.23;101968.44;5076350;28;20056;-59
2023/05/17 09:51:47;;;;;;;16.38;2.35;;;;;;;12.26;41.88;101967.44;5076492;28;20044;-59
2023/05/17 09:54:13;;;;;;;22.65;3.20;;;;;;;12.44;41.10;101965.94;5059145;28;20139;-59
2023/05/17 09:56:40;;;;;;;10.50;2.47;;;;;;;12.64;40.24;101968.78;5077088;28;20170;-59
2023/05/17 09:59:14;;;;;;;17.80;3.13;;;;;;;12.62;40.62;101970.66;5076568;28;20501;-59
2023/05/17 10:01:43;;;;;;;10.75;2.30;;;;;;;12.61;40.39;101982.16;5077563;28;20052;-58
2023/05/17 10:04:12;;;;;;;13.20;1.65;;;;;;;12.59;41.49;101970.75;5071802;28;20045;-58
2023/05/17 10:06:40;;;;;;;11.30;2.20;;;;;;;12.83;41.49;101961.06;5057620;28;20086;-59
2023/05/17 10:09:13;;;;;;;10.10;1.60;;;;;;;12.98;41.13;101964.94;5075194;28;20064;-58
2023/05/17 10:11:44;;;;;;;40.15;5.18;;;;;;;13.45;40.98;101965.91;5071494;28;20068;-58
2023/05/17 10:14:32;;;;;;;15.35;2.80;;;;;;;13.52;40.75;101962.09;5076080;28;20048;-58
2023/05/17 10:17:01;;;;;;;13.93;2.90;;;;;;;13.68;41.10;101963.25;5058952;28;20052;-59
2023/05/17 10:19:28;;;;;;;12.55;2.10;;;;;;;13.21;39.37;101947.31;5069226;28;20088;-59
2023/05/17 10:21:57;;;;;;;10.70;2.40;;;;;;;13.35;39.65;101963.59;5074789;28;20475;-59
2023/05/17 10:24:37;;;;;;;11.52;2.15;;;;;;;13.16;39.35;101970.50;5075289;28;20056;-59
2023/05/17 10:27:08;;;;;;;10.93;2.72;;;;;;;13.49;39.12;101962.22;5074404;28;20048;-59
2023/05/17 10:29:37;;;;;;;12.48;2.20;;;;;;;13.44;38.38;101972.13;5051300;28;20045;-57
2023/05/17 10:32:06;;;;;;;12.63;2.03;;;;;;;13.06;39.31;101966.44;5053696;28;20140;-57
2023/05/17 10:34:35;;;;;;;17.92;2.22;;;;;;;13.14;39.07;101969.69;5076267;28;20056;-57
2023/05/17 10:37:03;;;;;;;11.48;3.17;;;;;;;13.68;38.70;101979.19;5075057;28;20049;-57
2023/05/17 10:39:33;;;;;;;13.38;1.52;;;;;;;13.80;38.21;101976.94;5075291;28;20131;-57
2023/05/17 10:42:03;;;;;;;20.52;1.95;;;;;;;13.82;36.56;101980.41;5070757;28;20072;-57
2023/05/17 10:44:40;;;;;;;18.65;3.22;;;;;;;14.12;36.44;101984.50;5046789;28;20132;-58
2023/05/17 10:47:07;;;;;;;17.90;2.83;;;;;;;14.94;34.88;101980.19;5064408;28;20127;-57
2023/05/17 10:49:38;;;;;;;15.27;2.63;;;;;;;14.39;34.37;102000.22;5059028;28;20055;-57
2023/05/17 10:52:31;;;;;;;18.48;2.17;;;;;;;15.52;32.98;101984.66;5073334;28;20115;-57
2023/05/17 10:54:58;;;;;;;12.70;1.67;;;;;;;16.24;32.39;101983.00;5068415;28;20084;-57
2023/05/17 10:57:36;;;;;;;8.85;1.85;;;;;;;17.05;31.31;101976.16;5070578;28;20052;-57
2023/05/17 11:00:07;;;;;;;16.13;1.83;;;;;;;16.87;31.26;101993.16;5073613;28;20136;-57
2023/05/17 11:02:39;;;;;;;7.85;2.17;;;;;;;18.02;30.02;101991.34;5072221;28;20051;-58
2023/05/17 11:05:06;;;;;;;10.27;1.80;;;;;;;17.67;30.38;101978.13;5070836;28;20044;-59
2023/05/17 11:07:36;;;;;;;9.40;1.52;;;;;;;17.61;30.50;101989.16;5073914;28;20048;-58
2023/05/17 11:10:09;;;;;;;10.10;2.20;;;;;;;18.87;28.10;101987.22;5073659;28;20418;-59
2023/05/17 11:12:46;;;;;;;15.02;1.75;;;;;;;18.51;27.31;101987.59;5073155;28;20044;-58
2023/05/17 11:15:15;;;;;;;11.18;2.25;;;;;;;19.71;27.68;101998.94;5072132;28;20051;-58
2023/05/17 11:17:41;;;;;;;14.93;2.85;;;;;;;19.98;26.49;101996.31;5055716;28;20074;-57
2023/05/17 11:20:29;;;;;;;8.65;1.50;;;;;;;20.51;25.37;101998.19;5050568;28;20148;-58
2023/05/17 11:23:05;;;;;;;11.85;2.13;;;;;;;19.76;27.17;101985.25;5071840;28;20127;-58
2023/05/17 11:25:34;;;;;;;11.23;1.60;;;;;;;19.57;26.98;101991.78;5072868;28;20049;-58
2023/05/17 11:28:19;;;;;;;12.32;2.08;;;;;;;18.99;27.29;101984.75;5072819;28;20092;-58
2023/05/17 11:30:52;;;;;;;15.88;1.92;;;;;;;18.72;28.61;101988.13;5073016;28;20091;-58